createdAt,value
2019-05-29T00:00:04.228Z,97076.72
2019-05-29T00:02:31.152Z,97084.06
2019-05-29T00:04:58.233Z,97086.20
2019-05-29T00:07:25.041Z,97081.97
2019-05-29T00:09:52.804Z,97083.28
2019-05-29T00:12:21.191Z,97088.00
2019-05-29T00:14:48.374Z,97090.13
2019-05-29T00:17:15.508Z,97098.01
2019-05-29T00:19:42.649Z,97093.77
2019-05-29T00:22:10.288Z,97099.54
2019-05-29T00:24:37.449Z,97101.94
2019-05-29T00:27:05.408Z,97101.12
2019-05-29T00:29:32.682Z,97105.88
2019-05-29T00:31:59.596Z,97104.05
2019-05-29T00:34:26.785Z,97104.27
2019-05-29T00:36:53.896Z,97107.68
2019-05-29T00:39:21.168Z,97106.37
2019-05-29T00:41:48.413Z,97112.92
2019-05-29T00:44:17.467Z,97111.13
2019-05-29T00:46:45.776Z,97113.75
2019-05-29T00:49:14.232Z,97116.07
2019-05-29T00:51:41.220Z,97114.76
2019-05-29T00:54:08.596Z,97119.00
2019-05-29T00:56:35.592Z,97114.23
2019-05-29T00:59:03.426Z,97114.76
2019-05-29T01:01:30.624Z,97119.48
2019-05-29T01:03:57.698Z,97119.48
2019-05-29T01:06:24.746Z,97123.42
2019-05-29T01:08:59.365Z,97124.73
2019-05-29T01:11:27.600Z,97131.29
2019-05-29T01:13:54.689Z,97140.25
2019-05-29T01:16:21.741Z,97136.53
2019-05-29T01:18:48.908Z,97136.53
2019-05-29T01:21:17.996Z,97141.78
2019-05-29T01:23:45.135Z,97139.16
2019-05-29T01:26:12.479Z,97140.47
2019-05-29T01:28:39.754Z,97144.41
2019-05-29T01:31:06.976Z,97151.48
2019-05-29T01:33:34.132Z,97153.09
2019-05-29T01:36:01.301Z,97154.11
2019-05-29T01:38:28.494Z,97153.59
2019-05-29T01:40:55.535Z,97158.56
2019-05-29T01:43:23.562Z,97159.88
2019-05-29T01:45:53.679Z,97159.36
2019-05-29T01:48:27.800Z,97164.08
2019-05-29T01:50:56.998Z,97160.41
2019-05-29T01:53:24.410Z,97167.23
2019-05-29T01:55:51.285Z,97169.06
2019-05-29T01:58:18.184Z,97170.64
2019-05-29T02:00:44.986Z,97167.75
2019-05-29T02:03:11.842Z,97168.55
2019-05-29T02:05:38.686Z,97173.79
2019-05-29T02:08:05.568Z,97175.89
2019-05-29T02:10:32.377Z,97174.88
2019-05-29T02:12:59.207Z,97177.20
2019-05-29T02:15:33.462Z,97119.63
2019-05-29T02:17:54.661Z,97188.00
2019-05-29T02:20:21.484Z,97192.72
2019-05-29T02:22:48.268Z,97188.00
2019-05-29T02:25:16.398Z,97197.45
2019-05-29T02:27:43.616Z,97200.59
2019-05-29T02:30:10.568Z,97204.53
2019-05-29T02:32:37.410Z,97200.86
2019-05-29T02:35:04.216Z,97202.70
2019-05-29T02:37:31.084Z,97204.53
2019-05-29T02:39:57.927Z,97208.46
2019-05-29T02:42:25.206Z,97211.09
2019-05-29T02:44:52.138Z,97207.42
2019-05-29T02:47:19.331Z,97215.02
2019-05-29T02:49:46.284Z,97222.38
2019-05-29T02:52:13.171Z,97216.34
2019-05-29T02:54:39.959Z,97222.89
2019-05-29T02:57:06.768Z,97227.63
2019-05-29T02:59:33.663Z,97229.45
2019-05-29T03:02:00.553Z,97232.59
2019-05-29T03:04:28.179Z,97231.28
2019-05-29T03:06:55.464Z,97234.70
2019-05-29T03:09:22.828Z,97240.98
2019-05-29T03:11:50.539Z,97246.51
2019-05-29T03:14:17.333Z,97244.41
2019-05-29T03:16:44.214Z,97244.92
2019-05-29T03:19:11.033Z,97244.10
2019-05-29T03:21:37.860Z,97250.97
2019-05-29T03:24:04.815Z,97259.63
2019-05-29T03:26:33.411Z,97259.36
2019-05-29T03:29:00.217Z,97266.41
2019-05-29T03:31:30.818Z,97267.72
2019-05-29T03:33:55.793Z,97267.72
2019-05-29T03:36:22.766Z,97272.97
2019-05-29T03:38:49.620Z,97276.11
2019-05-29T03:41:16.414Z,97284.28
2019-05-29T03:43:43.219Z,97281.35
2019-05-29T03:46:29.316Z,97284.77
2019-05-29T03:48:38.653Z,97287.39
2019-05-29T03:51:05.527Z,97291.85
2019-05-29T03:53:33.818Z,97295.27
2019-05-29T03:56:00.930Z,97303.66
2019-05-29T03:58:28.886Z,97299.50
2019-05-29T04:00:56.270Z,97297.89
2019-05-29T04:03:23.110Z,97301.83
2019-05-29T04:05:50.074Z,97304.97
2019-05-29T04:08:17.007Z,97300.52
2019-05-29T04:10:43.989Z,97311.00
2019-05-29T04:13:10.813Z,97311.00
2019-05-29T04:15:38.687Z,97315.98
2019-05-29T04:18:05.853Z,97239.18
2019-05-29T04:20:33.603Z,97323.86
2019-05-29T04:23:00.481Z,97331.20
2019-05-29T04:25:33.169Z,97329.09
2019-05-29T04:27:55.837Z,97331.72
2019-05-29T04:30:22.719Z,97339.59
2019-05-29T04:32:49.644Z,97336.97
2019-05-29T04:35:16.438Z,97336.97
2019-05-29T04:37:43.303Z,97344.84
2019-05-29T04:40:10.199Z,97340.11
2019-05-29T04:42:37.673Z,97345.36
2019-05-29T04:45:05.534Z,97346.67
2019-05-29T04:47:33.312Z,97360.59
2019-05-29T04:50:00.833Z,97360.86
2019-05-29T04:52:28.987Z,97365.04
2019-05-29T04:54:56.049Z,97363.73
2019-05-29T04:57:22.937Z,97388.66
2019-05-29T04:59:49.868Z,97378.95
2019-05-29T05:02:16.770Z,97379.47
2019-05-29T05:04:43.649Z,97389.44
2019-05-29T05:07:10.526Z,97386.83
2019-05-29T05:09:37.588Z,97392.59
2019-05-29T05:12:04.598Z,97392.06
2019-05-29T05:14:31.565Z,97397.05
2019-05-29T05:16:58.447Z,97398.62
2019-05-29T05:19:25.286Z,97401.77
2019-05-29T05:21:52.097Z,97402.56
2019-05-29T05:24:18.931Z,97404.39
2019-05-29T05:26:45.827Z,97413.06
2019-05-29T05:29:12.652Z,97417.78
2019-05-29T05:31:40.662Z,97441.64
2019-05-29T05:34:07.730Z,97426.70
2019-05-29T05:36:34.764Z,97422.77
2019-05-29T05:39:01.533Z,97427.48
2019-05-29T05:41:28.687Z,97434.05
2019-05-29T05:43:55.509Z,97435.88
2019-05-29T05:46:24.753Z,97438.50
2019-05-29T05:48:50.915Z,97435.36
2019-05-29T05:51:17.708Z,97440.88
2019-05-29T05:53:44.502Z,97442.00
2019-05-29T05:56:11.283Z,97443.09
2019-05-29T05:58:38.136Z,97449.66
2019-05-29T06:01:04.910Z,97447.55
2019-05-29T06:03:31.858Z,97448.27
2019-05-29T06:05:58.757Z,97451.64
2019-05-29T06:08:25.546Z,97459.59
2019-05-29T06:10:52.399Z,97457.23
2019-05-29T06:13:19.159Z,97456.34
2019-05-29T06:15:45.995Z,97461.16
2019-05-29T06:18:21.104Z,97468.23
2019-05-29T06:20:41.299Z,97470.97
2019-05-29T06:23:08.087Z,97469.05
2019-05-29T06:25:36.857Z,97471.15
2019-05-29T06:28:03.392Z,97480.08
2019-05-29T06:30:30.189Z,97470.73
2019-05-29T06:32:56.983Z,97477.56
2019-05-29T06:35:23.756Z,97476.53
2019-05-29T06:37:50.534Z,97476.06
2019-05-29T06:40:17.449Z,97473.34
2019-05-29T06:42:44.275Z,97478.19
2019-05-29T06:45:11.149Z,97483.05
2019-05-29T06:47:38.797Z,97486.61
2019-05-29T06:50:06.090Z,97479.84
2019-05-29T06:52:32.900Z,97489.04
2019-05-29T06:54:59.689Z,97489.38
2019-05-29T06:57:26.468Z,97495.01
2019-05-29T06:59:53.240Z,97491.34
2019-05-29T07:02:20.018Z,97496.48
2019-05-29T07:04:46.804Z,97503.27
2019-05-29T07:07:13.581Z,97504.42
2019-05-29T07:09:41.076Z,97506.88
2019-05-29T07:12:08.035Z,97516.36
2019-05-29T07:14:36.064Z,97523.19
2019-05-29T07:17:03.274Z,97524.02
2019-05-29T07:19:47.439Z,97527.95
2019-05-29T07:21:58.587Z,97535.58
2019-05-29T07:24:25.439Z,97537.95
2019-05-29T07:26:52.232Z,97538.55
2019-05-29T07:29:19.012Z,97545.38
2019-05-29T07:31:45.781Z,97554.31
2019-05-29T07:34:12.605Z,97558.00
2019-05-29T07:36:39.902Z,97559.59
2019-05-29T07:39:06.900Z,97563.00
2019-05-29T07:41:33.673Z,97569.32
2019-05-29T07:44:00.450Z,97572.22
2019-05-29T07:46:27.248Z,97571.19
2019-05-29T07:48:54.022Z,97567.77
2019-05-29T07:51:20.802Z,97577.78
2019-05-29T07:53:48.804Z,97575.67
2019-05-29T07:56:22.755Z,97582.53
2019-05-29T07:58:56.855Z,97575.98
2019-05-29T08:01:13.977Z,97578.88
2019-05-29T08:03:41.259Z,97581.50
2019-05-29T08:06:08.210Z,97582.85
2019-05-29T08:08:35.018Z,97578.44
2019-05-29T08:11:01.830Z,97578.48
2019-05-29T08:13:28.629Z,97579.00
2019-05-29T08:16:02.752Z,97582.93
2019-05-29T08:18:24.111Z,97588.41
2019-05-29T08:20:53.085Z,97590.84
2019-05-29T08:23:19.897Z,97592.22
2019-05-29T08:25:49.676Z,97590.91
2019-05-29T08:28:16.718Z,97594.91
2019-05-29T08:30:48.343Z,97594.91
2019-05-29T08:33:12.351Z,97599.67
2019-05-29T08:35:41.396Z,97603.13
2019-05-29T08:38:08.452Z,97603.92
2019-05-29T08:40:35.419Z,97604.16
2019-05-29T08:43:02.276Z,97606.82
2019-05-29T08:45:29.120Z,97608.41
2019-05-29T08:47:55.926Z,97607.89
2019-05-29T08:50:22.704Z,97602.38
2019-05-29T08:52:50.120Z,97612.30
2019-05-29T08:55:17.033Z,97618.81
2019-05-29T08:57:44.261Z,97622.48
2019-05-29T09:00:11.202Z,97627.44
2019-05-29T09:02:37.990Z,97627.16
2019-05-29T09:05:04.841Z,97628.47
2019-05-29T09:07:31.694Z,97630.30
2019-05-29T09:09:58.478Z,97630.30
2019-05-29T09:12:25.270Z,97628.20
2019-05-29T09:14:52.068Z,97629.27
2019-05-29T09:17:20.054Z,97623.47
2019-05-29T09:19:46.900Z,97630.30
2019-05-29T09:22:14.850Z,97632.41
2019-05-29T09:24:41.741Z,97635.55
2019-05-29T09:27:08.557Z,97636.62
2019-05-29T09:29:35.348Z,97635.03
2019-05-29T09:32:02.123Z,97631.09
2019-05-29T09:34:29.006Z,97638.45
2019-05-29T09:36:56.068Z,97632.69
2019-05-29T09:39:23.004Z,97631.37
2019-05-29T09:41:49.761Z,97633.48
2019-05-29T09:44:31.145Z,97627.44
2019-05-29T09:46:45.047Z,97627.95
2019-05-29T09:49:11.833Z,97633.48
2019-05-29T09:51:38.633Z,97638.72
2019-05-29T09:54:05.550Z,97644.77
2019-05-29T09:56:32.373Z,97645.28
2019-05-29T09:59:00.384Z,97653.42
2019-05-29T10:01:27.717Z,97680.16
2019-05-29T10:03:55.333Z,97647.15
2019-05-29T10:06:23.046Z,97642.42
2019-05-29T10:08:49.828Z,97643.45
2019-05-29T10:11:16.637Z,97648.97
2019-05-29T10:13:43.407Z,97645.04
2019-05-29T10:16:10.223Z,97655.53
2019-05-29T10:18:37.004Z,97648.45
2019-05-29T10:21:05.042Z,97645.04
2019-05-29T10:23:32.024Z,97649.77
2019-05-29T10:26:00.285Z,97647.15
2019-05-29T10:28:27.297Z,97650.56
2019-05-29T10:30:54.071Z,97657.12
2019-05-29T10:33:20.871Z,97652.39
2019-05-29T10:35:49.686Z,97664.47
2019-05-29T10:38:16.187Z,97656.60
2019-05-29T10:40:47.356Z,97664.98
2019-05-29T10:43:11.495Z,97659.73
2019-05-29T10:45:38.274Z,97659.73
2019-05-29T10:48:05.127Z,97665.27
2019-05-29T10:50:31.903Z,97662.64
2019-05-29T10:52:58.683Z,97656.09
2019-05-29T10:55:25.450Z,97649.53
2019-05-29T10:57:53.093Z,97650.84
2019-05-29T11:00:20.230Z,97649.81
2019-05-29T11:02:48.140Z,97658.70
2019-05-29T11:05:15.590Z,97658.47
2019-05-29T11:07:42.399Z,97657.16
2019-05-29T11:10:11.243Z,97661.09
2019-05-29T11:12:39.494Z,97659.50
2019-05-29T11:15:20.404Z,97659.78
2019-05-29T11:17:34.881Z,97664.23
2019-05-29T11:20:01.707Z,97667.13
2019-05-29T11:22:28.571Z,97667.41
2019-05-29T11:24:56.583Z,97673.17
2019-05-29T11:27:26.029Z,97672.66
2019-05-29T11:29:53.297Z,97674.48
2019-05-29T11:32:20.553Z,97673.17
2019-05-29T11:34:47.346Z,97675.80
2019-05-29T11:37:14.155Z,97683.14
2019-05-29T11:39:40.919Z,97690.50
2019-05-29T11:42:07.699Z,97704.13
2019-05-29T11:44:34.479Z,97698.87
2019-05-29T11:47:02.810Z,97703.12
2019-05-29T11:49:29.824Z,97706.75
2019-05-29T11:52:18.682Z,97706.23
2019-05-29T11:54:25.140Z,97706.23
2019-05-29T11:56:53.590Z,97716.80
2019-05-29T11:59:20.481Z,97717.86
2019-05-29T12:01:50.736Z,97720.77
2019-05-29T12:04:25.737Z,97727.05
2019-05-29T12:06:44.292Z,97721.52
2019-05-29T12:09:11.403Z,97733.84
2019-05-29T12:11:38.202Z,97729.11
2019-05-29T12:14:05.094Z,97731.22
2019-05-29T12:16:31.944Z,97731.22
2019-05-29T12:18:59.806Z,97727.28
2019-05-29T12:21:26.763Z,97733.84
2019-05-29T12:23:53.994Z,97733.04
2019-05-29T12:26:23.050Z,97736.97
2019-05-29T12:28:49.425Z,97738.28
2019-05-29T12:31:16.269Z,97740.91
2019-05-29T12:33:43.065Z,97743.53
2019-05-29T12:36:09.828Z,97744.33
2019-05-29T12:38:36.637Z,97748.26
2019-05-29T12:41:03.821Z,97749.58
2019-05-29T12:43:30.858Z,97749.58
2019-05-29T12:45:57.801Z,97749.58
2019-05-29T12:48:24.690Z,97747.74
2019-05-29T12:50:51.471Z,97760.06
2019-05-29T12:53:29.756Z,97756.12
2019-05-29T12:55:46.766Z,97763.72
2019-05-29T12:58:13.534Z,97764.80
2019-05-29T13:00:40.301Z,97762.69
2019-05-29T13:03:07.096Z,97764.52
2019-05-29T13:05:33.936Z,97769.23
2019-05-29T13:08:00.883Z,97767.41
2019-05-29T13:10:30.973Z,97767.93
2019-05-29T13:13:02.360Z,97762.69
2019-05-29T13:15:25.138Z,97762.69
2019-05-29T13:17:55.537Z,97762.69
2019-05-29T13:20:22.020Z,97755.61
2019-05-29T13:22:48.973Z,97766.89
2019-05-29T13:25:15.768Z,97765.59
2019-05-29T13:27:42.559Z,97765.35
2019-05-29T13:30:09.447Z,97764.55
2019-05-29T13:32:36.296Z,97764.55
2019-05-29T13:35:04.256Z,97767.70
2019-05-29T13:37:31.128Z,97759.03
2019-05-29T13:39:57.989Z,97765.07
2019-05-29T13:42:24.785Z,97756.41
2019-05-29T13:44:51.601Z,97758.52
2019-05-29T13:47:18.429Z,97765.86
2019-05-29T13:49:45.207Z,97766.38
2019-05-29T13:52:12.582Z,97764.55
2019-05-29T13:54:39.628Z,97764.04
2019-05-29T13:57:07.134Z,97769.00
2019-05-29T13:59:34.996Z,97772.42
2019-05-29T14:02:05.778Z,97774.53
2019-05-29T14:04:30.284Z,97779.77
2019-05-29T14:06:58.495Z,97774.02
2019-05-29T14:09:25.456Z,97776.36
2019-05-29T14:11:52.305Z,97779.77
2019-05-29T14:14:19.080Z,97792.38
2019-05-29T14:16:45.866Z,97790.27
2019-05-29T14:19:13.542Z,97786.33
2019-05-29T14:21:40.420Z,97791.58
2019-05-29T14:24:24.375Z,97795.51
2019-05-29T14:26:35.721Z,97793.69
2019-05-29T14:29:03.506Z,97793.41
2019-05-29T14:31:30.386Z,97787.64
2019-05-29T14:33:57.154Z,97791.58
2019-05-29T14:36:23.940Z,97799.44
2019-05-29T14:38:50.735Z,97801.55
2019-05-29T14:41:17.502Z,97809.42
2019-05-29T14:43:44.265Z,97802.86
2019-05-29T14:46:12.142Z,97808.11
2019-05-29T14:48:39.024Z,97809.70
2019-05-29T14:51:06.591Z,97808.63
2019-05-29T14:53:33.475Z,97808.91
2019-05-29T14:56:00.266Z,97810.22
2019-05-29T14:58:27.038Z,97812.84
2019-05-29T15:00:53.822Z,97808.63
2019-05-29T15:03:20.603Z,97808.11
2019-05-29T15:05:47.378Z,97818.59
2019-05-29T15:08:14.327Z,97818.88
2019-05-29T15:10:41.205Z,97820.70
2019-05-29T15:13:08.965Z,97816.16
2019-05-29T15:15:36.521Z,97821.73
2019-05-29T15:18:04.800Z,97819.91
2019-05-29T15:20:31.833Z,97821.22
2019-05-29T15:22:58.685Z,97821.22
2019-05-29T15:25:25.539Z,97824.50
2019-05-29T15:27:52.400Z,97830.61
2019-05-29T15:30:23.136Z,97829.82
2019-05-29T15:32:48.114Z,97833.68
2019-05-29T15:35:18.423Z,97837.33
2019-05-29T15:37:46.086Z,97839.67
2019-05-29T15:40:13.109Z,97843.89
2019-05-29T15:42:40.097Z,97846.52
2019-05-29T15:45:07.649Z,97846.64
2019-05-29T15:47:34.543Z,97860.36
2019-05-29T15:50:01.559Z,97858.02
2019-05-29T15:52:28.512Z,97856.42
2019-05-29T15:54:56.075Z,97857.69
2019-05-29T15:57:23.029Z,97755.70
2019-05-29T15:59:50.007Z,97860.42
2019-05-29T16:02:17.999Z,97859.34
2019-05-29T16:04:45.057Z,97861.17
2019-05-29T16:07:12.015Z,97861.92
2019-05-29T16:09:39.799Z,97864.83
2019-05-29T16:12:06.700Z,97867.16
2019-05-29T16:14:33.577Z,97870.30
2019-05-29T16:17:00.485Z,97865.58
2019-05-29T16:19:27.346Z,97875.55
2019-05-29T16:21:54.132Z,97875.55
2019-05-29T16:24:20.918Z,97876.34
2019-05-29T16:26:47.676Z,97878.17
2019-05-29T16:29:17.321Z,97880.09
2019-05-29T16:31:42.998Z,97887.25
2019-05-29T16:34:09.849Z,97893.29
2019-05-29T16:36:36.665Z,97888.33
2019-05-29T16:39:04.627Z,97894.31
2019-05-29T16:41:31.412Z,97893.01
2019-05-29T16:43:58.208Z,97899.25
2019-05-29T16:46:25.039Z,97901.88
2019-05-29T16:48:51.833Z,97905.53
2019-05-29T16:51:18.841Z,97910.77
2019-05-29T16:53:45.684Z,97910.77
2019-05-29T16:56:12.742Z,97912.60
2019-05-29T16:58:39.500Z,97915.22
2019-05-29T17:01:06.283Z,97914.42
2019-05-29T17:03:33.088Z,97917.33
2019-05-29T17:05:59.882Z,97917.84
2019-05-29T17:08:26.664Z,97913.12
2019-05-29T17:10:53.435Z,97917.05
2019-05-29T17:13:20.656Z,97920.47
2019-05-29T17:15:47.488Z,97920.98
2019-05-29T17:18:14.751Z,97918.36
2019-05-29T17:20:41.601Z,97927.02
2019-05-29T17:23:08.434Z,97922.81
2019-05-29T17:25:35.192Z,97929.65
2019-05-29T17:28:01.978Z,97926.52
2019-05-29T17:30:28.773Z,97938.03
2019-05-29T17:32:55.558Z,97939.34
2019-05-29T17:35:23.182Z,97943.28
2019-05-29T17:37:50.094Z,97948.01
2019-05-29T17:40:17.372Z,97947.73
2019-05-29T17:42:44.170Z,97947.22
2019-05-29T17:45:12.226Z,97949.84
2019-05-29T17:47:39.746Z,97953.77
2019-05-29T17:50:06.562Z,97950.86
2019-05-29T17:52:33.402Z,97957.19
2019-05-29T17:55:00.214Z,97959.02
2019-05-29T17:57:27.034Z,97960.84
2019-05-29T17:59:53.805Z,97970.30
2019-05-29T18:02:20.608Z,97962.67
2019-05-29T18:04:47.475Z,97973.45
2019-05-29T18:07:14.259Z,97967.41
2019-05-29T18:09:41.030Z,97970.82
2019-05-29T18:12:07.807Z,97973.95
2019-05-29T18:14:34.586Z,97977.38
2019-05-29T18:17:01.365Z,97974.70
2019-05-29T18:19:28.350Z,97983.66
2019-05-29T18:21:55.192Z,97989.70
2019-05-29T18:24:21.960Z,97989.70
2019-05-29T18:26:48.802Z,97993.11
2019-05-29T18:29:15.651Z,98000.19
2019-05-29T18:31:42.444Z,97822.61
2019-05-29T18:34:09.245Z,97998.88
2019-05-29T18:36:36.036Z,97993.11
2019-05-29T18:39:03.336Z,98029.55
2019-05-29T18:41:30.156Z,98003.61
2019-05-29T18:43:56.924Z,98003.84
2019-05-29T18:46:24.992Z,98003.32
2019-05-29T18:48:52.318Z,98013.81
2019-05-29T18:51:20.342Z,98013.30
2019-05-29T18:53:47.260Z,98011.98
2019-05-29T18:56:14.073Z,98015.64
2019-05-29T18:58:40.846Z,98018.78
2019-05-29T19:01:07.729Z,98023.80
2019-05-29T19:03:34.567Z,98024.59
2019-05-29T19:06:01.370Z,98026.42
2019-05-29T19:08:28.142Z,98032.97
2019-05-29T19:10:54.942Z,98033.77
2019-05-29T19:13:21.798Z,98031.23
2019-05-29T19:15:48.544Z,98040.98
2019-05-29T19:18:15.319Z,98041.78
2019-05-29T19:20:42.098Z,98052.05
2019-05-29T19:23:08.892Z,98054.09
2019-05-29T19:25:35.657Z,98063.91
2019-05-29T19:28:02.478Z,98066.64
2019-05-29T19:30:29.496Z,98065.69
2019-05-29T19:32:56.304Z,98075.67
2019-05-29T19:35:23.477Z,98076.98
2019-05-29T19:37:50.353Z,98083.77
2019-05-29T19:40:17.142Z,98089.53
2019-05-29T19:42:43.906Z,98096.52
2019-05-29T19:45:10.683Z,98102.52
2019-05-29T19:47:37.456Z,98108.78
2019-05-29T19:50:04.230Z,98106.11
2019-05-29T19:52:31.246Z,98105.02
2019-05-29T19:54:58.081Z,98108.16
2019-05-29T19:57:25.919Z,98113.92
2019-05-29T19:59:52.947Z,98121.80
2019-05-29T20:02:19.712Z,98119.17
2019-05-29T20:04:46.505Z,98123.39
2019-05-29T20:07:13.281Z,98130.97
2019-05-29T20:09:40.084Z,98131.48
2019-05-29T20:12:06.894Z,98139.06
2019-05-29T20:14:33.853Z,98134.34
2019-05-29T20:17:00.850Z,98137.25
2019-05-29T20:19:28.262Z,98143.80
2019-05-29T20:21:55.244Z,98143.00
2019-05-29T20:24:22.141Z,98145.69
2019-05-29T20:26:48.989Z,98143.06
2019-05-29T20:29:15.941Z,98139.64
2019-05-29T20:31:42.988Z,98144.38
2019-05-29T20:34:09.784Z,98144.38
2019-05-29T20:36:37.271Z,98153.05
2019-05-29T20:39:05.402Z,98154.06
2019-05-29T20:41:34.984Z,98155.66
2019-05-29T20:44:00.931Z,98149.63
2019-05-29T20:46:27.753Z,98153.55
2019-05-29T20:48:54.626Z,98158.80
2019-05-29T20:51:21.473Z,98161.42
2019-05-29T20:53:48.303Z,98154.06
2019-05-29T20:56:15.119Z,98159.59
2019-05-29T20:58:42.025Z,98168.78
2019-05-29T21:01:08.998Z,98162.73
2019-05-29T21:03:36.319Z,98176.14
2019-05-29T21:06:03.349Z,98177.45
2019-05-29T21:08:30.202Z,98178.48
2019-05-29T21:10:57.030Z,98182.70
2019-05-29T21:13:24.198Z,98181.10
2019-05-29T21:15:51.182Z,98187.95
2019-05-29T21:18:17.978Z,98180.08
2019-05-29T21:20:44.914Z,98187.15
2019-05-29T21:23:12.013Z,98187.15
2019-05-29T21:25:39.037Z,98186.34
2019-05-29T21:28:06.076Z,98192.68
2019-05-29T21:30:32.972Z,98187.66
2019-05-29T21:32:59.800Z,98184.52
2019-05-29T21:35:26.726Z,98190.06
2019-05-29T21:37:53.598Z,98187.66
2019-05-29T21:40:20.527Z,98196.62
2019-05-29T21:42:47.479Z,98190.57
2019-05-29T21:45:14.333Z,98191.88
2019-05-29T21:47:41.209Z,98196.62
2019-05-29T21:50:08.120Z,98197.92
2019-05-29T21:52:34.969Z,98193.70
2019-05-29T21:55:01.764Z,98192.91
2019-05-29T21:57:28.723Z,98193.48
2019-05-29T21:59:55.676Z,98197.64
2019-05-29T22:02:22.648Z,98204.48
2019-05-29T22:04:50.089Z,98205.00
2019-05-29T22:07:16.942Z,98200.78
2019-05-29T22:09:43.783Z,98198.44
2019-05-29T22:12:10.725Z,98200.55
2019-05-29T22:14:37.527Z,98206.31
2019-05-29T22:17:04.452Z,98203.69
2019-05-29T22:19:31.361Z,98206.02
2019-05-29T22:21:59.171Z,98204.27
2019-05-29T22:24:26.273Z,98204.03
2019-05-29T22:26:53.223Z,98204.20
2019-05-29T22:29:20.059Z,98208.94
2019-05-29T22:31:46.997Z,98205.22
2019-05-29T22:34:13.916Z,98207.84
2019-05-29T22:36:40.780Z,98208.36
2019-05-29T22:39:07.707Z,98207.56
2019-05-29T22:41:34.724Z,98209.67
2019-05-29T22:44:02.617Z,98216.23
2019-05-29T22:46:29.638Z,98212.01
2019-05-29T22:48:57.823Z,98210.19
2019-05-29T22:51:24.687Z,98216.23
2019-05-29T22:53:52.512Z,98212.01
2019-05-29T22:56:20.235Z,98213.32
2019-05-29T22:58:47.195Z,98211.20
2019-05-29T23:01:14.002Z,98215.95
2019-05-29T23:03:40.964Z,98214.62
2019-05-29T23:06:07.844Z,98213.32
2019-05-29T23:08:35.430Z,98212.52
2019-05-29T23:11:03.107Z,98207.56
2019-05-29T23:13:30.154Z,98210.41
2019-05-29T23:15:57.037Z,98212.81
2019-05-29T23:18:24.011Z,98208.59
2019-05-29T23:20:50.924Z,98215.66
2019-05-29T23:23:17.858Z,98213.55
2019-05-29T23:25:44.893Z,98220.91
2019-05-29T23:28:11.825Z,98222.73
2019-05-29T23:30:38.804Z,98214.86
2019-05-29T23:33:05.791Z,98218.79
2019-05-29T23:35:32.638Z,98222.73
2019-05-29T23:37:59.563Z,98222.41
2019-05-29T23:40:26.484Z,98221.09
2019-05-29T23:42:53.399Z,98221.90
2019-05-29T23:45:20.281Z,98221.90
2019-05-29T23:47:47.062Z,98222.41
2019-05-29T23:50:13.938Z,98222.41
2019-05-29T23:52:40.854Z,98220.30
2019-05-29T23:55:07.739Z,98220.81
2019-05-29T23:57:34.577Z,98218.98
